createdAt,value
2019-04-11T00:00:57.645Z,0
2019-04-11T00:01:58.656Z,0
2019-04-11T00:03:00.831Z,0
2019-04-11T00:04:01.908Z,0
2019-04-11T00:05:02.728Z,0
2019-04-11T00:06:04.108Z,0
2019-04-11T00:07:05.879Z,0
2019-04-11T00:08:07.905Z,0
2019-04-11T00:09:08.235Z,0
2019-04-11T00:10:10.228Z,0
2019-04-11T00:11:11.538Z,0
2019-04-11T00:12:12.441Z,0
2019-04-11T00:13:19.819Z,0
2019-04-11T00:14:15.874Z,0
2019-04-11T00:15:16.295Z,0
2019-04-11T00:16:17.677Z,0
2019-04-11T00:17:19.586Z,0
2019-04-11T00:18:20.775Z,0
2019-04-11T00:19:21.761Z,0
2019-04-11T00:20:24.237Z,0
2019-04-11T00:21:24.612Z,0
2019-04-11T00:22:25.832Z,0
2019-04-11T00:23:27.212Z,0
2019-04-11T00:24:29.208Z,0
2019-04-11T00:25:29.932Z,0
2019-04-11T00:26:31.310Z,0
2019-04-11T00:27:32.961Z,0
2019-04-11T00:28:34.099Z,0
2019-04-11T00:29:36.473Z,0
2019-04-11T00:30:36.712Z,0
2019-04-11T00:31:39.033Z,0
2019-04-11T00:32:39.438Z,0
2019-04-11T00:33:40.820Z,0
2019-04-11T00:34:42.723Z,0
2019-04-11T00:35:43.935Z,0
2019-04-11T00:36:44.884Z,0
2019-04-11T00:37:47.401Z,0
2019-04-11T00:38:47.840Z,0
2019-04-11T00:39:49.898Z,0
2019-04-11T00:40:51.239Z,0
2019-04-11T00:41:52.325Z,0
2019-04-11T00:42:52.985Z,0
2019-04-11T00:43:54.618Z,0
2019-04-11T00:44:57.026Z,0
2019-04-11T00:45:58.100Z,0
2019-04-11T00:46:58.514Z,0
2019-04-11T00:47:59.743Z,0
2019-04-11T00:49:01.886Z,0
2019-04-11T00:50:04.062Z,0
2019-04-11T00:51:03.811Z,0
2019-04-11T00:52:05.196Z,0
2019-04-11T00:53:06.598Z,0
2019-04-11T00:54:08.708Z,0
2019-04-11T00:55:09.301Z,0
2019-04-11T00:56:10.889Z,0
2019-04-11T00:57:12.709Z,0
2019-04-11T00:58:13.747Z,0
2019-04-11T00:59:14.700Z,0
2019-04-11T01:00:16.081Z,0
2019-04-11T01:01:17.697Z,0
2019-04-11T01:02:18.827Z,0
2019-04-11T01:03:20.237Z,0
2019-04-11T01:04:21.590Z,0
2019-04-11T01:05:23.538Z,0
2019-04-11T01:06:24.325Z,0
2019-04-11T01:07:26.791Z,0
2019-04-11T01:08:27.377Z,0
2019-04-11T01:09:28.460Z,0
2019-04-11T01:10:29.977Z,0
2019-04-11T01:11:32.013Z,0
2019-04-11T01:12:32.421Z,0
2019-04-11T01:13:42.565Z,0
2019-04-11T01:14:37.105Z,0
2019-04-11T01:15:36.505Z,0
2019-04-11T01:16:38.846Z,0
2019-04-11T01:17:39.281Z,0
2019-04-11T01:18:40.614Z,0
2019-04-11T01:19:42.632Z,0
2019-04-11T01:20:43.866Z,0
2019-04-11T01:21:44.683Z,0
2019-04-11T01:22:46.601Z,0
2019-04-11T01:23:47.401Z,0
2019-04-11T01:24:48.778Z,0
2019-04-11T01:25:50.174Z,0
2019-04-11T01:26:51.791Z,0
2019-04-11T01:27:52.894Z,0
2019-04-11T01:28:55.328Z,0
2019-04-11T01:29:55.703Z,0
2019-04-11T01:30:57.525Z,0
2019-04-11T01:31:58.304Z,0
2019-04-11T01:32:59.686Z,0
2019-04-11T01:34:02.274Z,0
2019-04-11T01:35:02.405Z,0
2019-04-11T01:36:04.770Z,0
2019-04-11T01:37:05.135Z,0
2019-04-11T01:38:06.502Z,0
2019-04-11T01:39:08.491Z,0
2019-04-11T01:40:09.859Z,0
2019-04-11T01:41:10.572Z,0
2019-04-11T01:42:13.139Z,0
2019-04-11T01:43:13.557Z,0
2019-04-11T01:44:14.648Z,0
2019-04-11T01:45:16.957Z,0
2019-04-11T01:46:18.051Z,0
2019-04-11T01:47:18.710Z,0
2019-04-11T01:48:20.095Z,0
2019-04-11T01:49:21.903Z,0
2019-04-11T01:50:23.051Z,0
2019-04-11T01:51:25.356Z,0
2019-04-11T01:52:26.527Z,0
2019-04-11T01:53:26.888Z,0
2019-04-11T01:54:28.238Z,0
2019-04-11T01:55:29.616Z,0
2019-04-11T01:56:31.455Z,0
2019-04-11T01:57:32.335Z,0
2019-04-11T01:58:33.722Z,0
2019-04-11T01:59:35.438Z,0
2019-04-11T02:00:36.518Z,0
2019-04-11T02:01:38.977Z,0
2019-04-11T02:02:39.151Z,0
2019-04-11T02:03:41.416Z,0
2019-04-11T02:04:41.868Z,0
2019-04-11T02:05:43.915Z,0
2019-04-11T02:06:45.833Z,0
2019-04-11T02:07:46.962Z,0
2019-04-11T02:08:47.981Z,0
2019-04-11T02:09:50.413Z,0
2019-04-11T02:10:50.861Z,0
2019-04-11T02:11:52.088Z,0
2019-04-11T02:12:53.428Z,0
2019-04-11T02:14:05.085Z,0
2019-04-11T02:14:56.152Z,0
2019-04-11T02:15:58.394Z,0
2019-04-11T02:16:59.292Z,0
2019-04-11T02:18:01.243Z,0
2019-04-11T02:19:01.647Z,0
2019-04-11T02:20:02.907Z,0
2019-04-11T02:21:05.234Z,0
2019-04-11T02:22:06.489Z,0
2019-04-11T02:23:07.006Z,0
2019-04-11T02:24:08.400Z,0
2019-04-11T02:25:09.779Z,0
2019-04-11T02:26:11.481Z,0
2019-04-11T02:27:12.619Z,0
2019-04-11T02:28:14.715Z,0
2019-04-11T02:29:15.202Z,0
2019-04-11T02:30:18.329Z,0
2019-04-11T02:31:19.563Z,0
2019-04-11T02:32:20.838Z,0
2019-04-11T02:33:21.758Z,0
2019-04-11T02:34:23.379Z,0
2019-04-11T02:35:24.247Z,0
2019-04-11T02:36:25.024Z,0
2019-04-11T02:37:26.325Z,0
2019-04-11T02:38:28.363Z,0
2019-04-11T02:39:30.741Z,0
2019-04-11T02:40:30.634Z,0
2019-04-11T02:41:32.024Z,0
2019-04-11T02:42:32.981Z,0
2019-04-11T02:43:34.213Z,0
2019-04-11T02:44:52.277Z,0
2019-04-11T02:45:49.168Z,0
2019-04-11T02:46:47.889Z,0
2019-04-11T02:47:41.111Z,0
2019-04-11T02:48:40.893Z,0
2019-04-11T02:49:43.461Z,0
2019-04-11T02:50:43.548Z,0
2019-04-11T02:51:44.964Z,0
2019-04-11T02:52:47.197Z,0
2019-04-11T02:53:47.459Z,0
2019-04-11T02:54:49.342Z,0
2019-04-11T02:55:51.849Z,0
2019-04-11T02:56:52.902Z,0
2019-04-11T02:57:54.173Z,0
2019-04-11T02:58:54.560Z,0
2019-04-11T02:59:56.043Z,0
2019-04-11T03:01:00.294Z,0
2019-04-11T03:01:58.275Z,0
2019-04-11T03:03:01.161Z,0
2019-04-11T03:04:01.901Z,0
2019-04-11T03:05:02.897Z,0
2019-04-11T03:06:04.456Z,0
2019-04-11T03:07:05.912Z,0
2019-04-11T03:08:10.617Z,0
2019-04-11T03:09:07.815Z,0
2019-04-11T03:10:09.905Z,0
2019-04-11T03:11:10.832Z,0
2019-04-11T03:12:13.259Z,0
2019-04-11T03:13:13.237Z,0
2019-04-11T03:14:16.282Z,0
2019-04-11T03:15:32.080Z,0
2019-04-11T03:16:28.133Z,0
2019-04-11T03:17:23.080Z,0
2019-04-11T03:18:42.448Z,0
2019-04-11T03:19:35.737Z,0
2019-04-11T03:20:31.709Z,0
2019-04-11T03:21:24.459Z,0
2019-04-11T03:22:26.557Z,0
2019-04-11T03:23:27.860Z,0
2019-04-11T03:24:29.498Z,0
2019-04-11T03:25:30.500Z,0
2019-04-11T03:26:31.074Z,0
2019-04-11T03:27:32.595Z,0
2019-04-11T03:28:34.013Z,0
2019-04-11T03:29:36.168Z,0
2019-04-11T03:30:54.063Z,0
2019-04-11T03:34:24.893Z,0
2019-04-11T03:37:24.061Z,0
2019-04-11T03:38:05.820Z,0
2019-04-11T03:39:11.358Z,0
2019-04-11T03:40:06.029Z,0
2019-04-11T03:41:12.526Z,0
2019-04-11T03:42:09.539Z,0
2019-04-11T03:43:06.347Z,0
2019-04-11T03:44:04.315Z,0
2019-04-11T03:45:15.304Z,0
2019-04-11T03:46:16.378Z,0
2019-04-11T03:47:10.126Z,0
2019-04-11T03:48:12.469Z,0
2019-04-11T03:49:15.869Z,0
2019-04-11T03:50:08.365Z,0
2019-04-11T03:51:04.771Z,0
2019-04-11T03:52:08.129Z,0
2019-04-11T03:53:09.379Z,0
2019-04-11T03:54:09.630Z,0
2019-04-11T03:55:11.086Z,0
2019-04-11T03:56:12.155Z,0
2019-04-11T03:57:13.384Z,0
2019-04-11T03:58:15.487Z,0
2019-04-11T03:59:16.604Z,0
2019-04-11T04:00:16.675Z,0
2019-04-11T04:01:18.405Z,0
2019-04-11T04:02:20.251Z,0
2019-04-11T04:03:22.295Z,0
2019-04-11T04:04:23.399Z,0
2019-04-11T04:05:23.818Z,0
2019-04-11T04:06:25.577Z,0
2019-04-11T04:07:27.661Z,0
2019-04-11T04:08:28.824Z,0
2019-04-11T04:09:29.358Z,0
2019-04-11T04:10:30.015Z,0
2019-04-11T04:11:32.608Z,0
2019-04-11T04:12:33.635Z,0
2019-04-11T04:13:34.539Z,0
2019-04-11T04:14:36.953Z,0
2019-04-11T04:15:51.613Z,5
2019-04-11T04:16:43.211Z,5
2019-04-11T04:17:41.162Z,5
2019-04-11T04:18:40.865Z,5
2019-04-11T04:19:43.698Z,5
2019-04-11T04:20:43.909Z,5
2019-04-11T04:21:44.945Z,5
2019-04-11T04:22:48.089Z,5
2019-04-11T04:23:49.466Z,5
2019-04-11T04:24:49.687Z,10
2019-04-11T04:25:51.509Z,10
2019-04-11T04:26:52.635Z,10
2019-04-11T04:27:54.571Z,10
2019-04-11T04:28:55.392Z,10
2019-04-11T04:29:57.741Z,10
2019-04-11T04:30:57.936Z,15
2019-04-11T04:31:59.546Z,15
2019-04-11T04:33:00.582Z,15
2019-04-11T04:34:01.961Z,15
2019-04-11T04:35:02.766Z,15
2019-04-11T04:36:06.603Z,20
2019-04-11T04:37:05.864Z,20
2019-04-11T04:38:07.422Z,20
2019-04-11T04:39:08.686Z,20
2019-04-11T04:40:24.109Z,20
2019-04-11T04:41:21.098Z,20
2019-04-11T04:42:23.479Z,25
2019-04-11T04:43:14.460Z,25
2019-04-11T04:44:14.664Z,25
2019-04-11T04:45:16.358Z,25
2019-04-11T04:46:30.807Z,30
2019-04-11T04:47:24.994Z,30
2019-04-11T04:48:23.076Z,30
2019-04-11T04:49:21.487Z,30
2019-04-11T04:50:24.340Z,30
2019-04-11T04:51:24.516Z,35
2019-04-11T04:52:27.232Z,40
2019-04-11T04:53:28.254Z,40
2019-04-11T04:54:28.374Z,45
2019-04-11T04:55:30.326Z,45
2019-04-11T04:56:32.254Z,45
2019-04-11T04:57:35.086Z,45
2019-04-11T04:58:33.937Z,45
2019-04-11T04:59:37.416Z,50
2019-04-11T05:00:37.493Z,55
2019-04-11T05:01:39.157Z,55
2019-04-11T05:02:39.744Z,55
2019-04-11T05:03:40.873Z,55
2019-04-11T05:04:43.447Z,55
2019-04-11T05:05:44.289Z,60
2019-04-11T05:06:46.769Z,60
2019-04-11T05:07:46.861Z,60
2019-04-11T05:08:47.291Z,60
2019-04-11T05:09:50.131Z,65
2019-04-11T05:10:51.344Z,60
2019-04-11T05:11:52.856Z,60
2019-04-11T05:12:52.545Z,55
2019-04-11T05:13:54.499Z,55
2019-04-11T05:14:56.023Z,55
2019-04-11T05:16:06.846Z,55
2019-04-11T05:16:58.102Z,60
2019-04-11T05:17:59.895Z,60
2019-04-11T05:19:00.882Z,60
2019-04-11T05:20:02.887Z,60
2019-04-11T05:21:03.399Z,60
2019-04-11T05:22:04.793Z,65
2019-04-11T05:23:06.368Z,65
2019-04-11T05:24:07.534Z,65
2019-04-11T05:25:08.923Z,70
2019-04-11T05:26:10.946Z,70
2019-04-11T05:27:12.560Z,70
2019-04-11T05:28:13.968Z,70
2019-04-11T05:29:15.211Z,75
2019-04-11T05:30:16.731Z,80
2019-04-11T05:31:17.055Z,85
2019-04-11T05:32:19.677Z,85
2019-04-11T05:33:19.869Z,105
2019-04-11T05:34:21.236Z,105
2019-04-11T05:35:22.788Z,105
2019-04-11T05:36:24.717Z,105
2019-04-11T05:37:25.335Z,110
2019-04-11T05:38:27.307Z,125
2019-04-11T05:39:28.066Z,130
2019-04-11T05:40:30.901Z,120
2019-04-11T05:41:31.356Z,110
2019-04-11T05:42:33.299Z,115
2019-04-11T05:43:37.371Z,160
2019-04-11T05:44:37.590Z,170
2019-04-11T05:45:36.304Z,155
2019-04-11T05:46:49.102Z,155
2019-04-11T05:47:39.296Z,170
2019-04-11T05:48:41.026Z,130
2019-04-11T05:49:42.449Z,110
2019-04-11T05:50:46.312Z,115
2019-04-11T05:51:47.434Z,105
2019-04-11T05:52:46.506Z,160
2019-04-11T05:53:49.885Z,135
2019-04-11T05:54:49.730Z,125
2019-04-11T05:55:50.994Z,215
2019-04-11T05:56:55.025Z,210
2019-04-11T05:57:54.395Z,150
2019-04-11T05:58:55.588Z,225
2019-04-11T05:59:56.543Z,220
2019-04-11T06:00:58.287Z,170
2019-04-11T06:02:01.660Z,180
2019-04-11T06:03:00.068Z,190
2019-04-11T06:04:01.992Z,210
2019-04-11T06:05:02.968Z,210
2019-04-11T06:06:04.787Z,225
2019-04-11T06:07:07.849Z,225
2019-04-11T06:08:06.885Z,210
2019-04-11T06:09:10.138Z,210
2019-04-11T06:10:11.374Z,210
2019-04-11T06:11:14.431Z,205
2019-04-11T06:12:13.579Z,205
2019-04-11T06:13:13.674Z,195
2019-04-11T06:14:15.218Z,195
2019-04-11T06:15:16.664Z,190
2019-04-11T06:16:18.802Z,185
2019-04-11T06:17:19.128Z,175
2019-04-11T06:18:27.079Z,165
2019-04-11T06:19:22.830Z,160
2019-04-11T06:20:25.111Z,155
2019-04-11T06:21:24.596Z,155
2019-04-11T06:22:25.989Z,160
2019-04-11T06:23:27.528Z,160
2019-04-11T06:24:28.932Z,160
2019-04-11T06:25:30.940Z,165
2019-04-11T06:26:32.407Z,170
2019-04-11T06:27:34.149Z,190
2019-04-11T06:28:34.337Z,190
2019-04-11T06:29:36.879Z,195
2019-04-11T06:30:37.070Z,200
2019-04-11T06:31:38.461Z,210
2019-04-11T06:32:40.286Z,220
2019-04-11T06:33:41.215Z,230
2019-04-11T06:34:43.776Z,240
2019-04-11T06:35:44.169Z,280
2019-04-11T06:36:46.572Z,265
2019-04-11T06:37:46.706Z,260
2019-04-11T06:38:49.294Z,255
2019-04-11T06:39:49.487Z,305
2019-04-11T06:40:51.123Z,245
2019-04-11T06:41:52.134Z,240
2019-04-11T06:42:53.859Z,240
2019-04-11T06:43:56.350Z,250
2019-04-11T06:44:56.841Z,250
2019-04-11T06:45:58.832Z,250
2019-04-11T06:47:01.128Z,255
2019-04-11T06:48:01.591Z,255
2019-04-11T06:49:02.979Z,260
2019-04-11T06:50:04.372Z,275
2019-04-11T06:51:06.010Z,280
2019-04-11T06:52:07.117Z,325
2019-04-11T06:53:08.940Z,400
2019-04-11T06:54:09.863Z,370
2019-04-11T06:55:11.253Z,335
2019-04-11T06:56:12.644Z,350
2019-04-11T06:57:14.045Z,360
2019-04-11T06:58:15.441Z,620
2019-04-11T06:59:16.819Z,495
2019-04-11T07:00:18.214Z,315
2019-04-11T07:01:20.233Z,280
2019-04-11T07:02:23.308Z,235
2019-04-11T07:03:25.479Z,205
2019-04-11T07:04:23.678Z,185
2019-04-11T07:05:25.072Z,170
2019-04-11T07:06:27.202Z,165
2019-04-11T07:07:28.976Z,160
2019-04-11T07:08:30.018Z,150
2019-04-11T07:09:30.968Z,140
2019-04-11T07:10:31.883Z,135
2019-04-11T07:11:34.128Z,130
2019-04-11T07:12:34.955Z,125
2019-04-11T07:13:37.068Z,125
2019-04-11T07:14:37.571Z,125
2019-04-11T07:15:39.780Z,125
2019-04-11T07:16:40.413Z,125
2019-04-11T07:17:41.405Z,120
2019-04-11T07:18:42.797Z,110
2019-04-11T07:19:44.488Z,95
2019-04-11T07:20:45.763Z,85
2019-04-11T07:21:46.881Z,80
2019-04-11T07:22:48.820Z,80
2019-04-11T07:23:49.627Z,80
2019-04-11T07:24:51.022Z,85
2019-04-11T07:25:52.413Z,90
2019-04-11T07:26:54.351Z,90
2019-04-11T07:27:55.159Z,85
2019-04-11T07:28:56.596Z,85
2019-04-11T07:29:58.493Z,80
2019-04-11T07:31:00.307Z,75
2019-04-11T07:32:00.895Z,75
2019-04-11T07:33:02.191Z,75
2019-04-11T07:34:03.358Z,75
2019-04-11T07:35:04.958Z,75
2019-04-11T07:36:06.086Z,70
2019-04-11T07:37:07.481Z,70
2019-04-11T07:38:09.780Z,70
2019-04-11T07:39:10.216Z,75
2019-04-11T07:40:12.990Z,80
2019-04-11T07:41:13.003Z,85
2019-04-11T07:42:15.728Z,85
2019-04-11T07:43:17.122Z,85
2019-04-11T07:44:17.579Z,85
2019-04-11T07:45:18.442Z,85
2019-04-11T07:46:19.893Z,85
2019-04-11T07:47:24.581Z,85
2019-04-11T07:48:22.543Z,85
2019-04-11T07:49:24.432Z,90
2019-04-11T07:50:26.135Z,95
2019-04-11T07:51:27.539Z,100
2019-04-11T07:52:30.165Z,110
2019-04-11T07:53:30.463Z,115
2019-04-11T07:54:30.697Z,120
2019-04-11T07:55:32.257Z,120
2019-04-11T07:56:33.446Z,120
2019-04-11T07:57:34.840Z,115
2019-04-11T07:58:37.334Z,120
2019-04-11T07:59:37.708Z,125
2019-04-11T08:00:44.086Z,130
2019-04-11T08:01:40.389Z,130
2019-04-11T08:02:41.680Z,130
2019-04-11T08:03:43.064Z,125
2019-04-11T08:04:45.126Z,125
2019-04-11T08:05:46.672Z,125
2019-04-11T08:06:47.884Z,125
2019-04-11T08:07:49.081Z,125
2019-04-11T08:08:49.862Z,125
2019-04-11T08:09:51.253Z,125
2019-04-11T08:10:52.679Z,125
2019-04-11T08:11:54.062Z,130
2019-04-11T08:12:56.154Z,135
2019-04-11T08:13:56.796Z,150
2019-04-11T08:14:59.262Z,170
2019-04-11T08:15:59.550Z,185
2019-04-11T08:17:01.560Z,210
2019-04-11T08:18:02.298Z,235
2019-04-11T08:19:03.706Z,255
2019-04-11T08:20:05.103Z,280
2019-04-11T08:21:06.462Z,305
2019-04-11T08:22:08.407Z,305
2019-04-11T08:23:09.717Z,340
2019-04-11T08:24:10.547Z,330
2019-04-11T08:25:11.945Z,495
2019-04-11T08:26:13.674Z,445
2019-04-11T08:27:15.509Z,625
2019-04-11T08:28:16.428Z,595
2019-04-11T08:29:18.003Z,1120
2019-04-11T08:30:19.040Z,1550
2019-04-11T08:31:20.134Z,1410
2019-04-11T08:32:22.038Z,1105
2019-04-11T08:33:22.881Z,1000
2019-04-11T08:34:24.284Z,1000
2019-04-11T08:35:26.253Z,955
2019-04-11T08:36:27.035Z,950
2019-04-11T08:37:29.599Z,775
2019-04-11T08:38:29.801Z,625
2019-04-11T08:39:31.280Z,510
2019-04-11T08:40:33.626Z,375
2019-04-11T08:41:34.002Z,295
2019-04-11T08:42:37.286Z,245
2019-04-11T08:43:37.453Z,210
2019-04-11T08:44:38.187Z,180
2019-04-11T08:45:40.282Z,160
2019-04-11T08:46:40.941Z,145
2019-04-11T08:47:47.607Z,135
2019-04-11T08:48:44.112Z,125
2019-04-11T08:49:45.842Z,125
2019-04-11T08:50:46.988Z,130
2019-04-11T08:51:47.790Z,140
2019-04-11T08:52:49.180Z,155
2019-04-11T08:53:51.120Z,175
2019-04-11T08:54:51.950Z,200
2019-04-11T08:55:56.239Z,225
2019-04-11T08:56:55.725Z,250
2019-04-11T08:57:56.118Z,290
2019-04-11T08:58:57.405Z,360
2019-04-11T08:59:59.941Z,415
2019-04-11T09:01:00.669Z,515
2019-04-11T09:02:02.685Z,570
2019-04-11T09:03:02.918Z,625
2019-04-11T09:04:07.401Z,615
2019-04-11T09:05:12.054Z,905
2019-04-11T09:06:08.306Z,890
2019-04-11T09:07:10.184Z,875
2019-04-11T09:08:09.995Z,1120
2019-04-11T09:09:11.241Z,890
2019-04-11T09:10:12.627Z,870
2019-04-11T09:11:14.829Z,830
2019-04-11T09:12:15.353Z,1005
2019-04-11T09:13:17.309Z,1005
2019-04-11T09:14:18.113Z,1165
2019-04-11T09:15:19.525Z,1105
2019-04-11T09:16:21.587Z,1150
2019-04-11T09:17:23.249Z,600
2019-04-11T09:18:23.888Z,545
2019-04-11T09:19:25.106Z,1225
2019-04-11T09:20:27.546Z,655
2019-04-11T09:21:28.533Z,1455
2019-04-11T09:22:29.180Z,1550
2019-04-11T09:23:30.529Z,1465
2019-04-11T09:24:32.542Z,2205
2019-04-11T09:25:33.304Z,705
2019-04-11T09:26:34.701Z,380
2019-04-11T09:27:36.504Z,315
2019-04-11T09:28:37.710Z,305
2019-04-11T09:29:39.873Z,290
2019-04-11T09:30:41.091Z,280
2019-04-11T09:31:41.958Z,285
2019-04-11T09:32:42.959Z,285
2019-04-11T09:33:44.923Z,280
2019-04-11T09:34:46.048Z,270
2019-04-11T09:35:47.154Z,275
2019-04-11T09:36:49.244Z,285
2019-04-11T09:37:49.804Z,295
2019-04-11T09:38:51.194Z,305
2019-04-11T09:39:53.106Z,320
2019-04-11T09:40:54.224Z,300
2019-04-11T09:41:56.540Z,290
2019-04-11T09:42:57.583Z,305
2019-04-11T09:43:58.123Z,290
2019-04-11T09:44:59.470Z,300
2019-04-11T09:46:01.818Z,315
2019-04-11T09:47:03.328Z,310
2019-04-11T09:48:12.609Z,305
2019-04-11T09:49:04.890Z,290
2019-04-11T09:50:06.289Z,275
2019-04-11T09:51:07.679Z,265
2019-04-11T09:52:09.111Z,245
2019-04-11T09:53:10.510Z,220
2019-04-11T09:54:12.074Z,200
2019-04-11T09:55:13.326Z,170
2019-04-11T09:56:15.182Z,165
2019-04-11T09:57:16.404Z,160
2019-04-11T09:58:17.558Z,145
2019-04-11T09:59:18.954Z,145
2019-04-11T10:00:20.700Z,160
2019-04-11T10:01:21.713Z,150
2019-04-11T10:02:23.344Z,150
2019-04-11T10:03:25.560Z,160
2019-04-11T10:04:25.833Z,165
2019-04-11T10:05:27.235Z,170
2019-04-11T10:06:28.626Z,165
2019-04-11T10:07:30.116Z,170
2019-04-11T10:08:31.372Z,165
2019-04-11T10:09:32.778Z,165
2019-04-11T10:10:35.260Z,160
2019-04-11T10:11:35.535Z,135
2019-04-11T10:12:38.198Z,130
2019-04-11T10:13:38.299Z,125
2019-04-11T10:14:39.806Z,130
2019-04-11T10:15:41.044Z,135
2019-04-11T10:16:42.451Z,155
2019-04-11T10:17:43.857Z,175
2019-04-11T10:18:45.258Z,165
2019-04-11T10:19:46.643Z,165
2019-04-11T10:20:48.692Z,170
2019-04-11T10:21:49.959Z,175
2019-04-11T10:22:50.745Z,170
2019-04-11T10:23:53.289Z,165
2019-04-11T10:24:54.544Z,170
2019-04-11T10:25:55.925Z,170
2019-04-11T10:26:56.322Z,170
2019-04-11T10:27:57.560Z,175
2019-04-11T10:29:00.166Z,180
2019-04-11T10:30:00.879Z,195
2019-04-11T10:31:02.133Z,195
2019-04-11T10:32:03.283Z,180
2019-04-11T10:33:04.536Z,165
2019-04-11T10:34:06.112Z,160
2019-04-11T10:35:08.188Z,170
2019-04-11T10:36:08.435Z,185
2019-04-11T10:37:09.840Z,225
2019-04-11T10:38:11.944Z,285
2019-04-11T10:39:13.208Z,375
2019-04-11T10:40:13.946Z,500
2019-04-11T10:41:15.339Z,630
2019-04-11T10:42:18.017Z,625
2019-04-11T10:43:18.258Z,605
2019-04-11T10:44:19.445Z,575
2019-04-11T10:45:20.851Z,510
2019-04-11T10:46:22.940Z,485
2019-04-11T10:47:24.921Z,360
2019-04-11T10:48:35.590Z,250
2019-04-11T10:49:26.357Z,190
2019-04-11T10:50:28.383Z,155
2019-04-11T10:51:29.569Z,140
2019-04-11T10:52:30.831Z,125
2019-04-11T10:53:31.812Z,110
2019-04-11T10:54:33.200Z,95
2019-04-11T10:55:35.699Z,85
2019-04-11T10:56:35.946Z,80
2019-04-11T10:57:38.257Z,80
2019-04-11T10:58:38.689Z,80
2019-04-11T10:59:40.703Z,90
2019-04-11T11:00:41.440Z,90
2019-04-11T11:01:42.832Z,90
2019-04-11T11:02:45.290Z,85
2019-04-11T11:03:45.597Z,80
2019-04-11T11:04:46.988Z,70
2019-04-11T11:05:49.303Z,65
2019-04-11T11:06:49.730Z,65
2019-04-11T11:07:51.133Z,70
2019-04-11T11:08:53.400Z,75
2019-04-11T11:09:54.569Z,80
2019-04-11T11:10:55.570Z,90
2019-04-11T11:11:56.804Z,90
2019-04-11T11:12:59.186Z,100
2019-04-11T11:14:00.405Z,115
2019-04-11T11:15:00.947Z,120
2019-04-11T11:16:02.327Z,120
2019-04-11T11:17:04.450Z,120
2019-04-11T11:18:34.954Z,120
2019-04-11T11:19:32.220Z,120
2019-04-11T11:20:16.389Z,125
2019-04-11T11:21:09.453Z,125
2019-04-11T11:22:10.679Z,125
2019-04-11T11:23:13.051Z,120
2019-04-11T11:24:13.444Z,125
2019-04-11T11:25:16.759Z,125
2019-04-11T11:26:19.872Z,125
2019-04-11T11:27:18.112Z,125
2019-04-11T11:28:18.909Z,130
2019-04-11T11:29:21.189Z,130
2019-04-11T11:30:23.082Z,130
2019-04-11T11:31:24.427Z,140
2019-04-11T11:32:25.365Z,145
2019-04-11T11:33:26.655Z,150
2019-04-11T11:34:28.430Z,160
2019-04-11T11:35:32.343Z,170
2019-04-11T11:36:34.956Z,175
2019-04-11T11:37:33.253Z,175
2019-04-11T11:38:33.666Z,180
2019-04-11T11:39:35.259Z,190
2019-04-11T11:40:38.523Z,190
2019-04-11T11:41:38.545Z,195
2019-04-11T11:42:38.879Z,205
2019-04-11T11:43:41.261Z,210
2019-04-11T11:44:41.641Z,215
2019-04-11T11:45:47.940Z,215
2019-04-11T11:46:44.634Z,220
2019-04-11T11:47:45.961Z,220
2019-04-11T11:48:49.977Z,225
2019-04-11T11:49:56.524Z,240
2019-04-11T11:50:51.365Z,245
2019-04-11T11:51:51.862Z,250
2019-04-11T11:52:53.135Z,250
2019-04-11T11:53:53.896Z,240
2019-04-11T11:54:55.720Z,235
2019-04-11T11:55:57.836Z,225
2019-04-11T11:56:58.226Z,220
2019-04-11T11:58:00.465Z,215
2019-04-11T11:59:01.095Z,210
2019-04-11T12:00:02.885Z,205
2019-04-11T12:01:05.875Z,195
2019-04-11T12:02:04.797Z,180
2019-04-11T12:03:06.182Z,175
2019-04-11T12:04:08.584Z,165
2019-04-11T12:05:12.542Z,160
2019-04-11T12:06:10.305Z,140
2019-04-11T12:07:12.610Z,125
2019-04-11T12:08:16.131Z,105
2019-04-11T12:09:14.428Z,85
2019-04-11T12:10:15.831Z,75
2019-04-11T12:11:17.819Z,60
2019-04-11T12:12:19.738Z,55
2019-04-11T12:13:19.927Z,50
2019-04-11T12:14:22.158Z,50
2019-04-11T12:15:25.291Z,45
2019-04-11T12:16:24.028Z,45
2019-04-11T12:17:25.427Z,50
2019-04-11T12:18:26.856Z,50
2019-04-11T12:19:28.893Z,50
2019-04-11T12:20:29.582Z,50
2019-04-11T12:21:31.458Z,50
2019-04-11T12:22:32.733Z,50
2019-04-11T12:23:44.779Z,55
2019-04-11T12:24:36.396Z,50
2019-04-11T12:25:36.979Z,55
2019-04-11T12:26:37.877Z,55
2019-04-11T12:27:40.043Z,60
2019-04-11T12:28:41.504Z,60
2019-04-11T12:29:46.389Z,65
2019-04-11T12:30:43.981Z,70
2019-04-11T12:31:44.551Z,75
2019-04-11T12:32:46.433Z,75
2019-04-11T12:33:47.900Z,75
2019-04-11T12:34:49.329Z,85
2019-04-11T12:35:50.672Z,80
2019-04-11T12:36:52.956Z,80
2019-04-11T12:37:53.337Z,90
2019-04-11T12:38:54.884Z,90
2019-04-11T12:39:55.427Z,95
2019-04-11T12:40:56.815Z,100
2019-04-11T12:41:58.219Z,100
2019-04-11T12:42:59.611Z,105
2019-04-11T12:44:01.047Z,105
2019-04-11T12:45:02.433Z,100
2019-04-11T12:46:03.823Z,105
2019-04-11T12:47:07.582Z,100
2019-04-11T12:48:06.562Z,100
2019-04-11T12:49:07.952Z,95
2019-04-11T12:50:09.342Z,105
2019-04-11T12:51:10.730Z,110
2019-04-11T12:52:12.122Z,115
2019-04-11T12:53:13.510Z,120
2019-04-11T12:54:14.911Z,125
2019-04-11T12:55:16.306Z,130
2019-04-11T12:56:17.704Z,130
2019-04-11T12:57:19.103Z,125
2019-04-11T12:58:20.494Z,120
2019-04-11T12:59:21.894Z,115
2019-04-11T13:00:23.285Z,115
2019-04-11T13:01:24.684Z,105
2019-04-11T13:02:26.071Z,100
2019-04-11T13:03:27.464Z,90
2019-04-11T13:04:28.851Z,85
2019-04-11T13:05:30.237Z,80
2019-04-11T13:06:35.657Z,80
2019-04-11T13:07:33.078Z,75
2019-04-11T13:08:34.333Z,75
2019-04-11T13:09:35.729Z,80
2019-04-11T13:10:37.118Z,85
2019-04-11T13:11:38.507Z,85
2019-04-11T13:12:39.893Z,80
2019-04-11T13:13:41.280Z,75
2019-04-11T13:14:42.674Z,70
2019-04-11T13:15:44.087Z,65
2019-04-11T13:16:45.483Z,55
2019-04-11T13:17:46.885Z,50
2019-04-11T13:18:48.267Z,45
2019-04-11T13:19:49.657Z,40
2019-04-11T13:20:51.043Z,40
2019-04-11T13:21:52.444Z,40
2019-04-11T13:22:53.839Z,40
2019-04-11T13:23:55.221Z,40
2019-04-11T13:24:56.614Z,45
2019-04-11T13:25:58.009Z,45
2019-04-11T13:26:59.417Z,45
2019-04-11T13:28:00.812Z,45
2019-04-11T13:29:02.213Z,50
2019-04-11T13:30:03.613Z,50
2019-04-11T13:31:04.992Z,55
2019-04-11T13:32:06.383Z,60
2019-04-11T13:33:07.786Z,60
2019-04-11T13:34:11.113Z,60
2019-04-11T13:35:10.525Z,60
2019-04-11T13:36:11.918Z,65
2019-04-11T13:37:13.325Z,65
2019-04-11T13:38:14.720Z,65
2019-04-11T13:39:16.107Z,65
2019-04-11T13:40:17.497Z,65
2019-04-11T13:41:20.224Z,65
2019-04-11T13:42:20.229Z,70
2019-04-11T13:43:21.618Z,70
2019-04-11T13:44:23.004Z,70
2019-04-11T13:45:24.396Z,70
2019-04-11T13:46:25.782Z,70
2019-04-11T13:47:27.178Z,70
2019-04-11T13:48:28.583Z,70
2019-04-11T13:49:29.968Z,70
2019-04-11T13:50:31.354Z,65
2019-04-11T13:51:32.759Z,65
2019-04-11T13:52:34.151Z,65
2019-04-11T13:53:35.562Z,60
2019-04-11T13:54:36.952Z,55
2019-04-11T13:55:38.350Z,55
2019-04-11T13:56:39.730Z,55
2019-04-11T13:57:41.146Z,55
2019-04-11T13:58:42.537Z,55
2019-04-11T13:59:43.930Z,55
2019-04-11T14:00:45.329Z,55
2019-04-11T14:01:46.713Z,60
2019-04-11T14:02:51.238Z,65
2019-04-11T14:03:49.469Z,65
2019-04-11T14:04:50.854Z,65
2019-04-11T14:05:52.262Z,65
2019-04-11T14:06:53.656Z,70
2019-04-11T14:07:55.049Z,70
2019-04-11T14:08:56.439Z,70
2019-04-11T14:09:59.130Z,70
2019-04-11T14:10:59.691Z,70
2019-04-11T14:12:04.692Z,75
2019-04-11T14:13:03.500Z,75
2019-04-11T14:14:05.377Z,75
2019-04-11T14:15:06.253Z,75
2019-04-11T14:16:07.629Z,75
2019-04-11T14:17:07.337Z,80
2019-04-11T14:18:11.420Z,80
2019-04-11T14:19:12.018Z,80
2019-04-11T14:20:11.759Z,80
2019-04-11T14:21:14.709Z,75
2019-04-11T14:22:14.225Z,70
2019-04-11T14:23:15.566Z,70
2019-04-11T14:24:16.956Z,65
2019-04-11T14:25:18.344Z,65
2019-04-11T14:26:19.747Z,60
2019-04-11T14:27:21.148Z,60
2019-04-11T14:28:22.543Z,55
2019-04-11T14:29:23.949Z,50
2019-04-11T14:30:25.337Z,45
2019-04-11T14:31:26.723Z,45
2019-04-11T14:32:28.120Z,45
2019-04-11T14:33:29.505Z,45
2019-04-11T14:34:30.905Z,45
2019-04-11T14:35:32.307Z,45